Weather at Kleinschmidt Airport [CLOSED]

Public forecast

Using degrees Fahrenheit for public forecast. Weather courtesy of forecast.io.

Closest aviation weather report (METAR) to Kleinschmidt Airport

Closest report is Salem Municipal Airport/McNary Field, 16.8 nm (31.1 km) NNW. Retrieved 2021/07/24 21:56 UTC (29 minutes ago):

KSLE 242156Z 35012G19KT 10SM CLR 33/12 A3003 RMK AO2 SLP165 T03280117

Closest aviation forecast (TAF) to Kleinschmidt Airport

Closest forecast is Salem Municipal Airport/McNary Field, 16.8 nm (31.1 km) NNW. Retrieved 2021/07/24 18:27 UTC (4 hours ago):

TAF KSLE 241723Z 2418/2518 01010KT P6SM SKC FM242200 36011G20KT P6SM SKC FM250300 34010KT P6SM SKC FM250700 33004KT P6SM SKC